createdAt,value
2023-03-13T00:01:21.888Z,7.10
2023-03-13T00:03:50.287Z,7.20
2023-03-13T00:06:18.721Z,7.20
2023-03-13T00:08:46.808Z,7.10
2023-03-13T00:11:16.473Z,7.20
2023-03-13T00:13:45.322Z,7.20
2023-03-13T00:16:16.799Z,7.20
2023-03-13T00:18:48.586Z,7.20
2023-03-13T00:21:17.641Z,7.20
2023-03-13T00:23:46.550Z,7.20
2023-03-13T00:26:16.223Z,7.30
2023-03-13T00:28:46.127Z,7.40
2023-03-13T00:31:17.862Z,7.40
2023-03-13T00:33:48.184Z,7.50
2023-03-13T00:36:18.256Z,7.50
2023-03-13T00:38:47.049Z,7.40
2023-03-13T00:41:16.879Z,7.50
2023-03-13T00:43:46.206Z,7.60
2023-03-13T00:46:17.635Z,7.60
2023-03-13T00:48:46.043Z,7.60
2023-03-13T00:51:15.332Z,7.50
2023-03-13T00:53:43.652Z,7.50
2023-03-13T00:56:13.900Z,7.60
2023-03-13T00:58:43.909Z,7.60
2023-03-13T01:01:14.568Z,7.60
2023-03-13T01:03:45.920Z,7.60
2023-03-13T01:06:15.816Z,7.60
2023-03-13T01:08:44.239Z,7.60
2023-03-13T01:11:14.190Z,7.60
2023-03-13T01:13:42.820Z,7.60
2023-03-13T01:16:13.038Z,7.60
2023-03-13T01:18:44.226Z,7.60
2023-03-13T01:21:13.357Z,7.60
2023-03-13T01:23:41.971Z,7.50
2023-03-13T01:26:11.365Z,7.60
2023-03-13T01:28:39.870Z,7.50
2023-03-13T01:31:15.192Z,7.60
2023-03-13T01:33:44.661Z,7.60
2023-03-13T01:36:13.323Z,7.60
2023-03-13T01:38:41.373Z,7.60
2023-03-13T01:41:12.061Z,7.50
2023-03-13T01:43:40.151Z,7.50
2023-03-13T01:46:17.934Z,7.50
2023-03-13T01:49:10.892Z,7.50
2023-03-13T01:52:08.592Z,7.50
2023-03-13T01:54:45.131Z,7.40
2023-03-13T01:57:19.937Z,7.40
2023-03-13T01:59:52.389Z,7.40
2023-03-13T02:02:21.014Z,7.40
2023-03-13T02:04:55.073Z,7.40
2023-03-13T02:07:28.344Z,7.30
2023-03-13T02:09:57.809Z,7.40
2023-03-13T02:12:31.547Z,7.40
2023-03-13T02:15:02.072Z,7.40
2023-03-13T02:17:31.358Z,7.40
2023-03-13T02:20:01.490Z,7.40
2023-03-13T02:22:38.685Z,7.40
2023-03-13T02:25:13.940Z,7.40
2023-03-13T02:27:46.395Z,7.30
2023-03-13T02:30:16.072Z,7.30
2023-03-13T02:32:45.370Z,7.40
2023-03-13T02:35:15.916Z,7.30
2023-03-13T02:37:47.765Z,7.40
2023-03-13T02:40:25.410Z,7.30
2023-03-13T02:42:56.821Z,7.40
2023-03-13T02:45:24.989Z,7.40
2023-03-13T02:47:53.248Z,7.30
2023-03-13T02:50:22.424Z,7.40
2023-03-13T02:52:56.355Z,7.40
2023-03-13T02:55:29.239Z,7.40
2023-03-13T02:57:58.736Z,7.40
2023-03-13T03:00:29.847Z,7.40
2023-03-13T03:02:57.954Z,7.40
2023-03-13T03:05:26.337Z,7.40
2023-03-13T03:07:54.736Z,7.40
2023-03-13T03:10:22.881Z,7.40
2023-03-13T03:12:51.550Z,7.40
2023-03-13T03:15:22.648Z,7.40
2023-03-13T03:17:50.827Z,7.40
2023-03-13T03:20:18.981Z,7.40
2023-03-13T03:22:49.402Z,7.50
2023-03-13T03:25:17.649Z,7.40
2023-03-13T03:27:45.969Z,7.40
2023-03-13T03:30:14.477Z,7.40
2023-03-13T03:32:43.993Z,7.50
2023-03-13T03:35:12.443Z,7.50
2023-03-13T03:37:40.616Z,7.50
2023-03-13T03:40:11.005Z,7.50
2023-03-13T03:42:39.078Z,7.50
2023-03-13T03:45:08.155Z,7.50
2023-03-13T03:47:36.265Z,7.50
2023-03-13T03:50:07.652Z,7.50
2023-03-13T03:52:43.705Z,7.50
2023-03-13T03:55:11.829Z,7.50
2023-03-13T03:57:39.895Z,7.50
2023-03-13T04:00:15.748Z,7.50
2023-03-13T04:02:49.460Z,7.50
2023-03-13T04:05:19.144Z,7.60
2023-03-13T04:07:47.614Z,7.50
2023-03-13T04:10:15.876Z,7.50
2023-03-13T04:12:46.040Z,7.50
2023-03-13T04:15:14.451Z,7.50
2023-03-13T04:17:42.912Z,7.50
2023-03-13T04:20:13.689Z,7.50
2023-03-13T04:22:43.659Z,7.50
2023-03-13T04:25:12.449Z,7.50
2023-03-13T04:27:40.489Z,7.50
2023-03-13T04:30:10.692Z,7.50
2023-03-13T04:32:57.197Z,7.60
2023-03-13T04:35:45.580Z,7.60
2023-03-13T04:38:47.341Z,7.60
2023-03-13T04:41:44.551Z,7.60
2023-03-13T04:44:21.800Z,7.60
2023-03-13T04:47:14.150Z,7.70
2023-03-13T04:50:12.009Z,7.70
2023-03-13T04:52:51.498Z,7.60
2023-03-13T04:55:34.664Z,7.60
2023-03-13T04:58:18.175Z,7.60
2023-03-13T05:01:21.442Z,7.60
2023-03-13T05:04:15.706Z,7.70
2023-03-13T05:07:00.831Z,7.70
2023-03-13T05:09:37.736Z,7.70
2023-03-13T05:12:25.868Z,7.70
2023-03-13T05:15:02.693Z,7.70
2023-03-13T05:17:54.702Z,7.80
2023-03-13T05:20:52.357Z,7.70
2023-03-13T05:23:52.071Z,7.80
2023-03-13T05:26:22.738Z,7.80
2023-03-13T05:29:12.104Z,7.70
2023-03-13T05:31:49.919Z,7.80
2023-03-13T05:34:38.716Z,7.80
2023-03-13T05:37:27.061Z,7.90
2023-03-13T05:40:21.086Z,7.80
2023-03-13T05:43:06.357Z,7.90
2023-03-13T05:46:04.827Z,8.00
2023-03-13T05:49:05.634Z,7.90
2023-03-13T05:51:54.016Z,8.00
2023-03-13T05:54:40.633Z,8.00
2023-03-13T05:57:22.712Z,8.10
2023-03-13T06:00:02.957Z,8.10
2023-03-13T06:02:55.397Z,8.10
2023-03-13T06:05:30.849Z,8.10
2023-03-13T06:08:00.480Z,8.10
2023-03-13T06:10:28.597Z,8.20
2023-03-13T06:12:57.973Z,8.30
2023-03-13T06:15:31.851Z,8.30
2023-03-13T06:18:14.500Z,8.30
2023-03-13T06:20:42.733Z,8.30
2023-03-13T06:23:10.817Z,8.40
2023-03-13T06:25:39.397Z,8.40
2023-03-13T06:28:07.454Z,8.40
2023-03-13T06:30:35.550Z,8.50
2023-03-13T06:33:03.744Z,8.50
2023-03-13T06:35:38.854Z,8.50
2023-03-13T06:38:12.273Z,8.50
2023-03-13T06:40:40.370Z,8.50
2023-03-13T06:43:08.428Z,8.60
2023-03-13T06:45:37.124Z,8.70
2023-03-13T06:48:05.663Z,8.70
2023-03-13T06:50:38.690Z,8.70
2023-03-13T06:53:06.923Z,8.80
2023-03-13T06:55:35.213Z,8.80
2023-03-13T06:58:03.291Z,8.90
2023-03-13T07:00:31.498Z,8.90
2023-03-13T07:02:59.630Z,8.90
2023-03-13T07:05:27.670Z,8.90
2023-03-13T07:07:57.086Z,9.00
2023-03-13T07:10:25.231Z,9.00
2023-03-13T07:12:53.931Z,9.00
2023-03-13T07:15:21.998Z,9.10
2023-03-13T07:17:50.377Z,9.10
2023-03-13T07:20:18.801Z,9.10
2023-03-13T07:22:52.612Z,9.10
2023-03-13T07:25:22.038Z,9.20
2023-03-13T07:27:53.012Z,9.20
2023-03-13T07:30:21.296Z,9.20
2023-03-13T07:32:49.660Z,9.30
2023-03-13T07:35:17.848Z,9.30
2023-03-13T07:37:45.981Z,9.40
2023-03-13T07:40:14.368Z,9.40
2023-03-13T07:42:44.058Z,9.50
2023-03-13T07:45:12.586Z,9.50
2023-03-13T07:47:40.629Z,9.50
2023-03-13T07:50:10.550Z,9.60
2023-03-13T07:52:38.736Z,9.60
2023-03-13T07:55:07.179Z,9.70
2023-03-13T07:57:35.325Z,9.80
2023-03-13T08:00:10.003Z,9.80
2023-03-13T08:02:40.143Z,9.90
2023-03-13T08:05:09.037Z,9.90
2023-03-13T08:07:37.120Z,10.00
2023-03-13T08:10:06.029Z,10.00
2023-03-13T08:12:34.123Z,10.10
2023-03-13T08:15:02.216Z,10.10
2023-03-13T08:17:32.592Z,10.20
2023-03-13T08:20:00.640Z,10.20
2023-03-13T08:22:28.668Z,10.30
2023-03-13T08:24:56.721Z,10.30
2023-03-13T08:27:24.811Z,10.30
2023-03-13T08:29:53.121Z,10.40
2023-03-13T08:32:22.070Z,10.40
2023-03-13T08:34:51.578Z,10.40
2023-03-13T08:37:19.580Z,10.50
2023-03-13T08:39:48.590Z,10.50
2023-03-13T08:42:16.790Z,10.50
2023-03-13T08:44:45.264Z,10.60
2023-03-13T08:47:13.493Z,10.60
2023-03-13T08:49:41.568Z,10.60
2023-03-13T08:52:11.319Z,10.60
2023-03-13T08:54:39.351Z,10.70
2023-03-13T08:57:07.465Z,10.70
2023-03-13T08:59:35.545Z,10.80
2023-03-13T09:02:04.186Z,10.90
2023-03-13T09:04:32.248Z,10.90
2023-03-13T09:07:00.305Z,11.00
2023-03-13T09:09:29.719Z,11.00
2023-03-13T09:11:57.784Z,11.10
2023-03-13T09:14:25.833Z,11.10
2023-03-13T09:16:53.858Z,11.10
2023-03-13T09:19:21.990Z,11.10
2023-03-13T09:21:50.604Z,11.10
2023-03-13T09:24:18.709Z,11.10
2023-03-13T09:27:00.417Z,11.20
2023-03-13T09:29:29.255Z,11.20
2023-03-13T09:31:57.311Z,11.20
2023-03-13T09:34:29.642Z,11.30
2023-03-13T09:36:59.353Z,11.30
2023-03-13T09:39:27.506Z,11.30
2023-03-13T09:42:07.710Z,11.30
2023-03-13T09:44:41.337Z,11.40
2023-03-13T09:47:17.347Z,11.40
2023-03-13T09:49:48.082Z,11.40
2023-03-13T09:52:18.713Z,11.40
2023-03-13T09:54:53.151Z,11.40
2023-03-13T09:57:28.245Z,11.50
2023-03-13T09:59:59.985Z,11.50
2023-03-13T10:02:33.593Z,11.50
2023-03-13T10:05:08.804Z,11.50
2023-03-13T10:07:37.580Z,11.60
2023-03-13T10:10:14.176Z,11.50
2023-03-13T10:12:46.834Z,11.60
2023-03-13T10:15:30.872Z,11.60
2023-03-13T10:18:03.058Z,11.60
2023-03-13T10:20:35.947Z,11.80
2023-03-13T10:23:07.971Z,11.90
2023-03-13T10:25:39.383Z,12.00
2023-03-13T10:28:12.780Z,12.10
2023-03-13T10:30:47.434Z,12.10
2023-03-13T10:33:24.339Z,12.10
2023-03-13T10:36:07.736Z,12.20
2023-03-13T10:38:46.249Z,12.20
2023-03-13T10:41:28.740Z,12.30
2023-03-13T10:44:02.069Z,12.30
2023-03-13T10:46:32.057Z,12.20
2023-03-13T10:49:03.167Z,12.20
2023-03-13T10:51:37.594Z,12.10
2023-03-13T10:54:16.674Z,12.10
2023-03-13T10:56:44.936Z,12.10
2023-03-13T10:59:24.129Z,12.20
2023-03-13T11:01:53.021Z,12.40
2023-03-13T11:04:27.935Z,12.80
2023-03-13T11:07:02.539Z,13.10
2023-03-13T11:09:30.981Z,13.40
2023-03-13T11:12:05.458Z,13.70
2023-03-13T11:14:36.002Z,14.00
2023-03-13T11:17:10.821Z,14.10
2023-03-13T11:19:56.074Z,14.00
2023-03-13T11:22:37.877Z,14.00
2023-03-13T11:25:20.561Z,14.00
2023-03-13T11:27:59.545Z,14.00
2023-03-13T11:30:47.499Z,14.10
2023-03-13T11:33:28.978Z,14.10
2023-03-13T11:36:03.130Z,14.20
2023-03-13T11:38:37.430Z,14.50
2023-03-13T11:41:23.614Z,14.60
2023-03-13T11:44:12.212Z,14.40
2023-03-13T11:46:51.066Z,14.30
2023-03-13T11:49:43.613Z,14.30
2023-03-13T11:52:20.733Z,14.40
2023-03-13T11:55:13.404Z,14.60
2023-03-13T11:57:48.996Z,14.90
2023-03-13T12:00:23.756Z,14.90
2023-03-13T12:02:57.896Z,14.70
2023-03-13T12:05:30.209Z,14.70
2023-03-13T12:08:03.887Z,14.90
2023-03-13T12:10:39.890Z,14.80
2023-03-13T12:13:15.119Z,14.70
2023-03-13T12:15:46.666Z,14.60
2023-03-13T12:18:23.899Z,14.70
2023-03-13T12:20:57.678Z,14.80
2023-03-13T12:23:34.504Z,14.80
2023-03-13T12:26:07.081Z,14.70
2023-03-13T12:28:42.625Z,14.60
2023-03-13T12:31:19.855Z,14.70
2023-03-13T12:33:56.235Z,14.70
2023-03-13T12:36:30.756Z,14.70
2023-03-13T12:39:08.016Z,14.60
2023-03-13T12:41:41.987Z,14.50
2023-03-13T12:44:15.949Z,14.60
2023-03-13T12:46:47.561Z,14.80
2023-03-13T12:49:50.233Z,14.90
2023-03-13T12:52:43.858Z,15.10
2023-03-13T12:55:45.837Z,15.20
2023-03-13T12:58:30.493Z,15.20
2023-03-13T13:01:04.159Z,15.30
2023-03-13T13:03:36.346Z,15.20
2023-03-13T13:06:11.364Z,15.30
2023-03-13T13:08:42.292Z,15.30
2023-03-13T13:11:48.391Z,15.30
2023-03-13T13:14:58.664Z,15.40
2023-03-13T13:17:49.638Z,15.40
2023-03-13T13:20:33.060Z,15.40
2023-03-13T13:23:34.792Z,15.40
2023-03-13T13:26:51.124Z,15.50
2023-03-13T13:29:58.780Z,15.50
2023-03-13T13:32:43.758Z,15.60
2023-03-13T13:35:36.619Z,15.60
2023-03-13T13:38:36.549Z,15.70
2023-03-13T13:41:23.483Z,15.60
2023-03-13T13:44:27.835Z,15.50
2023-03-13T13:46:58.593Z,15.60
2023-03-13T13:49:54.374Z,15.60
2023-03-13T13:52:41.004Z,15.50
2023-03-13T13:55:32.879Z,15.60
2023-03-13T13:58:04.250Z,15.60
2023-03-13T14:00:42.311Z,15.70
2023-03-13T14:03:20.602Z,15.70
2023-03-13T14:05:53.365Z,15.70
2023-03-13T14:08:26.187Z,15.60
2023-03-13T14:11:06.237Z,15.60
2023-03-13T14:13:34.950Z,15.60
2023-03-13T14:16:24.064Z,15.60
2023-03-13T14:18:53.019Z,15.60
2023-03-13T14:21:25.524Z,15.60
2023-03-13T14:23:54.211Z,15.60
2023-03-13T14:26:23.758Z,15.70
2023-03-13T14:28:53.272Z,15.70
2023-03-13T14:31:29.952Z,15.80
2023-03-13T14:34:00.313Z,15.80
2023-03-13T14:36:29.857Z,15.80
2023-03-13T14:39:00.082Z,15.80
2023-03-13T14:41:31.910Z,15.80
2023-03-13T14:44:06.226Z,15.80
2023-03-13T14:46:36.028Z,15.70
2023-03-13T14:49:16.677Z,15.70
2023-03-13T14:51:46.594Z,15.70
2023-03-13T14:54:27.869Z,15.80
2023-03-13T14:57:13.791Z,15.80
2023-03-13T14:59:43.138Z,15.80
2023-03-13T15:02:22.969Z,15.80
2023-03-13T15:04:59.322Z,15.80
2023-03-13T15:07:37.253Z,15.80
2023-03-13T15:10:20.024Z,15.80
2023-03-13T15:12:48.139Z,15.80
2023-03-13T15:15:16.419Z,15.70
2023-03-13T15:17:44.791Z,15.60
2023-03-13T15:20:14.940Z,15.70
2023-03-13T15:22:46.544Z,15.60
2023-03-13T15:25:17.833Z,15.60
2023-03-13T15:27:45.923Z,15.60
2023-03-13T15:30:16.753Z,15.60
2023-03-13T15:32:46.694Z,15.60
2023-03-13T15:35:25.369Z,15.50
2023-03-13T15:37:54.890Z,15.50
2023-03-13T15:40:24.217Z,15.50
2023-03-13T15:42:52.868Z,15.40
2023-03-13T15:45:21.075Z,15.50
2023-03-13T15:47:50.000Z,15.40
2023-03-13T15:50:20.414Z,15.40
2023-03-13T15:52:48.464Z,15.40
2023-03-13T15:55:18.043Z,15.40
2023-03-13T15:57:50.226Z,15.40
2023-03-13T16:00:21.837Z,15.40
2023-03-13T16:02:50.256Z,15.40
2023-03-13T16:05:19.187Z,15.40
2023-03-13T16:07:47.324Z,15.40
2023-03-13T16:10:19.676Z,15.40
2023-03-13T16:12:47.759Z,15.40
2023-03-13T16:15:15.772Z,15.30
2023-03-13T16:17:43.863Z,15.30
2023-03-13T16:20:16.007Z,15.30
2023-03-13T16:22:44.514Z,15.30
2023-03-13T16:25:12.888Z,15.30
2023-03-13T16:27:42.743Z,15.20
2023-03-13T16:30:16.813Z,15.20
2023-03-13T16:32:44.967Z,15.10
2023-03-13T16:35:13.004Z,15.00
2023-03-13T16:37:41.585Z,15.00
2023-03-13T16:40:16.453Z,15.00
2023-03-13T16:42:46.282Z,15.00
2023-03-13T16:45:15.484Z,14.90
2023-03-13T16:47:44.739Z,14.90
2023-03-13T16:50:27.392Z,14.80
2023-03-13T16:52:55.973Z,14.90
2023-03-13T16:55:28.322Z,14.80
2023-03-13T16:57:58.278Z,14.80
2023-03-13T17:00:27.933Z,14.80
2023-03-13T17:02:57.415Z,14.80
2023-03-13T17:05:26.927Z,14.70
2023-03-13T17:07:55.143Z,14.70
2023-03-13T17:10:25.169Z,14.70
2023-03-13T17:12:53.480Z,14.70
2023-03-13T17:15:24.063Z,14.70
2023-03-13T17:17:54.109Z,14.70
2023-03-13T17:20:24.746Z,14.60
2023-03-13T17:22:53.107Z,14.60
2023-03-13T17:25:21.248Z,14.60
2023-03-13T17:27:49.549Z,14.50
2023-03-13T17:30:24.994Z,14.60
2023-03-13T17:32:53.399Z,14.50
2023-03-13T17:35:23.062Z,14.50
2023-03-13T17:37:52.381Z,14.50
2023-03-13T17:40:23.277Z,14.40
2023-03-13T17:42:52.184Z,14.40
2023-03-13T17:45:22.994Z,14.40
2023-03-13T17:47:53.849Z,14.40
2023-03-13T17:50:26.491Z,14.30
2023-03-13T17:52:54.910Z,14.20
2023-03-13T17:55:23.865Z,14.20
2023-03-13T17:57:53.191Z,14.10
2023-03-13T18:00:26.004Z,14.10
2023-03-13T18:02:54.131Z,14.00
2023-03-13T18:05:22.820Z,14.00
2023-03-13T18:07:51.812Z,13.90
2023-03-13T18:10:23.270Z,13.90
2023-03-13T18:12:52.640Z,13.80
2023-03-13T18:15:21.669Z,13.80
2023-03-13T18:17:54.744Z,13.80
2023-03-13T18:20:25.065Z,13.70
2023-03-13T18:22:54.137Z,13.70
2023-03-13T18:25:23.116Z,13.60
2023-03-13T18:27:51.622Z,13.60
2023-03-13T18:30:22.843Z,13.50
2023-03-13T18:32:52.399Z,13.50
2023-03-13T18:35:20.888Z,13.50
2023-03-13T18:37:49.382Z,13.40
2023-03-13T18:40:19.696Z,13.30
2023-03-13T18:42:48.079Z,13.20
2023-03-13T18:45:17.142Z,13.20
2023-03-13T18:47:45.302Z,13.20
2023-03-13T18:50:23.421Z,13.10
2023-03-13T18:52:51.881Z,13.00
2023-03-13T18:55:19.992Z,13.00
2023-03-13T18:57:49.029Z,13.00
2023-03-13T19:00:20.060Z,12.90
2023-03-13T19:02:48.288Z,12.80
2023-03-13T19:05:18.792Z,12.80
2023-03-13T19:07:47.382Z,12.80
2023-03-13T19:10:21.286Z,12.80
2023-03-13T19:12:49.408Z,12.80
2023-03-13T19:15:18.004Z,12.80
2023-03-13T19:17:46.573Z,12.70
2023-03-13T19:20:17.338Z,12.80
2023-03-13T19:22:46.953Z,12.80
2023-03-13T19:25:17.086Z,12.70
2023-03-13T19:27:45.720Z,12.70
2023-03-13T19:30:18.593Z,12.70
2023-03-13T19:32:46.754Z,12.70
2023-03-13T19:35:18.626Z,12.70
2023-03-13T19:37:48.308Z,12.70
2023-03-13T19:40:22.369Z,12.60
2023-03-13T19:42:50.545Z,12.70
2023-03-13T19:45:20.515Z,12.60
2023-03-13T19:47:48.734Z,12.50
2023-03-13T19:50:19.373Z,12.50
2023-03-13T19:52:49.078Z,12.50
2023-03-13T19:55:17.293Z,12.40
2023-03-13T19:57:45.425Z,12.40
2023-03-13T20:00:20.649Z,12.40
2023-03-13T20:02:48.899Z,12.40
2023-03-13T20:05:17.238Z,12.40
2023-03-13T20:07:45.500Z,12.30
2023-03-13T20:10:15.339Z,12.20
2023-03-13T20:12:43.435Z,12.20
2023-03-13T20:15:12.410Z,12.20
2023-03-13T20:17:40.445Z,12.20
2023-03-13T20:20:09.733Z,12.10
2023-03-13T20:22:37.906Z,12.20
2023-03-13T20:25:06.572Z,12.20
2023-03-13T20:27:35.964Z,12.20
2023-03-13T20:30:04.849Z,12.10
2023-03-13T20:32:33.030Z,12.00
2023-03-13T20:35:01.083Z,12.00
2023-03-13T20:37:29.220Z,11.90
2023-03-13T20:39:57.225Z,11.80
2023-03-13T20:42:25.314Z,11.80
2023-03-13T20:44:55.458Z,11.90
2023-03-13T20:47:23.479Z,11.90
2023-03-13T20:49:51.502Z,11.90
2023-03-13T20:52:19.549Z,11.80
2023-03-13T20:54:47.583Z,11.80
2023-03-13T20:57:16.482Z,11.70
2023-03-13T20:59:44.507Z,11.80
2023-03-13T21:02:14.057Z,11.80
2023-03-13T21:04:42.164Z,11.70
2023-03-13T21:07:11.076Z,11.70
2023-03-13T21:09:39.152Z,11.60
2023-03-13T21:12:07.542Z,11.50
2023-03-13T21:14:36.392Z,11.50
2023-03-13T21:17:04.635Z,11.50
2023-03-13T21:19:35.047Z,11.50
2023-03-13T21:22:03.109Z,11.50
2023-03-13T21:24:31.165Z,11.50
2023-03-13T21:26:59.923Z,11.50
2023-03-13T21:29:28.162Z,11.50
2023-03-13T21:31:56.260Z,11.50
2023-03-13T21:34:24.304Z,11.60
2023-03-13T21:36:53.710Z,11.40
2023-03-13T21:39:22.751Z,11.40
2023-03-13T21:41:50.799Z,11.40
2023-03-13T21:44:19.602Z,11.40
2023-03-13T21:46:48.593Z,11.50
2023-03-13T21:49:16.849Z,11.40
2023-03-13T21:51:44.961Z,11.50
2023-03-13T21:54:14.381Z,11.70
2023-03-13T21:56:42.430Z,11.70
2023-03-13T21:59:10.531Z,11.60
2023-03-13T22:01:38.581Z,11.40
2023-03-13T22:04:06.616Z,11.40
2023-03-13T22:06:35.232Z,11.30
2023-03-13T22:09:04.010Z,11.20
2023-03-13T22:11:33.616Z,11.20
2023-03-13T22:14:01.710Z,11.00
2023-03-13T22:16:29.723Z,10.90
2023-03-13T22:18:57.875Z,10.90
2023-03-13T22:21:25.909Z,10.90
2023-03-13T22:23:53.965Z,11.00
2023-03-13T22:26:22.064Z,11.10
2023-03-13T22:28:51.508Z,11.10
2023-03-13T22:31:19.501Z,11.10
2023-03-13T22:33:47.548Z,11.10
2023-03-13T22:36:15.695Z,11.10
2023-03-13T22:38:43.804Z,11.20
2023-03-13T22:41:14.042Z,11.20
2023-03-13T22:43:42.090Z,11.20
2023-03-13T22:46:12.658Z,11.20
2023-03-13T22:48:41.045Z,11.20
2023-03-13T22:51:11.857Z,11.20
2023-03-13T22:53:41.840Z,11.20
2023-03-13T22:56:11.877Z,11.20
2023-03-13T22:58:41.196Z,11.20
2023-03-13T23:01:12.809Z,11.10
2023-03-13T23:03:40.952Z,11.10
2023-03-13T23:06:11.368Z,11.10
2023-03-13T23:08:39.504Z,11.00
2023-03-13T23:11:07.958Z,11.00
2023-03-13T23:13:36.325Z,11.00
2023-03-13T23:16:06.956Z,11.00
2023-03-13T23:18:36.717Z,11.00
2023-03-13T23:21:06.536Z,11.00
2023-03-13T23:23:34.783Z,11.00
2023-03-13T23:26:03.393Z,11.00
2023-03-13T23:28:31.434Z,11.00
2023-03-13T23:30:59.472Z,11.00
2023-03-13T23:33:27.555Z,10.90
2023-03-13T23:35:56.956Z,10.90
2023-03-13T23:38:26.328Z,10.90
2023-03-13T23:40:54.369Z,10.90
2023-03-13T23:43:22.425Z,10.90
2023-03-13T23:45:50.452Z,10.90
2023-03-13T23:48:18.501Z,10.90
2023-03-13T23:50:46.600Z,11.00
2023-03-13T23:53:16.058Z,10.90
2023-03-13T23:55:44.078Z,10.90
2023-03-13T23:58:12.146Z,10.90
